Airfield :
LOGIN :

Register | Disclaimer

   EN    FR    IT 

 










Legend :    VFR   Marginal VFR   IFR   Intensive IFR   Very Intensive IFR
Visi :
Ceiling :
>= 8 km
>= 3000ft
5 to 8 km
1000 to 3000 ft
1500m to 5 km
500 to 1000 ft
800 to 1500m
200 to 500 ft
< 800m
< 200 ft
Symbols :   Thunderstorms  Fog  Heavy snow  Heavy precipitations  Wind > 20 kt
SIGMETs :     Misc.  Thunderstorms  Icing  Turbulence  Mountain Waves  Volcanic Ashes







- Airport Elevation : 791 ft
- IATA code : KRK


EPKK - Krakow-Balice

CURRENT METAR :
  • 170630Z 07004KT 9999 BKN046 18/13 Q1022

EXPIRED METARs :
  • 170600Z 07004KT 9999 BKN046 18/13 Q1021
  • 170530Z 04005KT 010V070 9999 FEW030 BKN050 18/14 Q1021
  • 170500Z 05003KT 010V090 9999 FEW030 BKN043 18/14 Q1021
  • 170430Z 04003KT 350V080 9999 FEW020 BKN040 18/14 Q1021
  • 170400Z 02003KT 340V040 9999 FEW030 BKN046 18/13 Q1021

TAF TAF EPKK
Valid from the 17 at 06:00 until the 18 at 06:00 UTC


170530Z 1706/1806 04010KT 9999 BKN036
TEMPO 1706/1806 VRB04KT
No reported NOTAMs for that airfield.



MET'MAP, your aeronautical weather chart ! - Copyright ORBIFLY December 2007 - Disclaimer

ORBIFLY MET'MAP TEAM :

Programming & Development : Alexandra Zaïnal
Concept & Development : Baudouin d'Aumeries
Co-Development & Prog : Marc-Olivier Méhu
Technical & hardware support : Manuel Goepfert

Contact : metmap@orbifly.com




SOURCES & CREDITS :

   NOAA